sensor_id;sensor_type;location;lat;lon;timestamp;pressure;altitude;pressure_sealevel;temperature;humidity
62712;BME280;48772;55.586;37.730;2022-08-19T00:00:21;99838.53;;;22.07;49.14
62712;BME280;48772;55.586;37.730;2022-08-19T00:02:47;99840.44;;;22.07;49.25
62712;BME280;48772;55.586;37.730;2022-08-19T00:05:14;99840.81;;;22.04;49.24
62712;BME280;48772;55.586;37.730;2022-08-19T00:07:42;99839.03;;;21.96;49.62
62712;BME280;48772;55.586;37.730;2022-08-19T00:10:11;99842.72;;;21.89;49.83
62712;BME280;48772;55.586;37.730;2022-08-19T00:12:37;99847.09;;;21.90;49.56
62712;BME280;48772;55.586;37.730;2022-08-19T00:15:05;99832.16;;;21.79;49.79
62712;BME280;48772;55.586;37.730;2022-08-19T00:17:31;99836.81;;;21.85;49.81
62712;BME280;48772;55.586;37.730;2022-08-19T00:19:57;99833.72;;;21.74;49.81
62712;BME280;48772;55.586;37.730;2022-08-19T00:22:23;99839.72;;;21.69;50.13
62712;BME280;48772;55.586;37.730;2022-08-19T00:24:48;99846.16;;;21.68;50.07
62712;BME280;48772;55.586;37.730;2022-08-19T00:27:14;99846.06;;;21.62;50.42
62712;BME280;48772;55.586;37.730;2022-08-19T00:29:40;99844.84;;;21.64;50.49
62712;BME280;48772;55.586;37.730;2022-08-19T00:32:06;99859.72;;;21.68;50.31
62712;BME280;48772;55.586;37.730;2022-08-19T00:34:32;99845.13;;;21.55;50.54
62712;BME280;48772;55.586;37.730;2022-08-19T00:36:58;99861.72;;;21.60;50.65
62712;BME280;48772;55.586;37.730;2022-08-19T00:39:25;99868.34;;;21.57;50.86
62712;BME280;48772;55.586;37.730;2022-08-19T00:41:51;99847.88;;;21.40;50.80
62712;BME280;48772;55.586;37.730;2022-08-19T00:44:20;99861.06;;;21.43;50.90
62712;BME280;48772;55.586;37.730;2022-08-19T00:46:48;99865.09;;;21.47;50.78
62712;BME280;48772;55.586;37.730;2022-08-19T00:51:45;99859.00;;;21.31;50.94
62712;BME280;48772;55.586;37.730;2022-08-19T00:54:12;99875.00;;;21.40;51.02
62712;BME280;48772;55.586;37.730;2022-08-19T00:56:39;99889.63;;;21.39;50.96
62712;BME280;48772;55.586;37.730;2022-08-19T00:59:06;99888.09;;;21.37;51.17
62712;BME280;48772;55.586;37.730;2022-08-19T01:01:39;99892.97;;;21.27;51.08
62712;BME280;48772;55.586;37.730;2022-08-19T01:04:05;99883.56;;;21.15;51.09
62712;BME280;48772;55.586;37.730;2022-08-19T01:06:32;99883.56;;;21.15;51.07
62712;BME280;48772;55.586;37.730;2022-08-19T01:08:59;99885.09;;;21.17;51.05
62712;BME280;48772;55.586;37.730;2022-08-19T01:11:26;99891.84;;;21.21;50.98
62712;BME280;48772;55.586;37.730;2022-08-19T01:13:53;99883.75;;;21.13;51.21
62712;BME280;48772;55.586;37.730;2022-08-19T01:16:21;99875.53;;;21.07;51.31
62712;BME280;48772;55.586;37.730;2022-08-19T01:18:48;99895.09;;;21.17;51.16
62712;BME280;48772;55.586;37.730;2022-08-19T01:21:32;99887.50;;;21.12;51.28
62712;BME280;48772;55.586;37.730;2022-08-19T01:23:59;99890.75;;;21.08;51.27
62712;BME280;48772;55.586;37.730;2022-08-19T01:26:27;99892.81;;;21.06;51.22
62712;BME280;48772;55.586;37.730;2022-08-19T01:28:56;99897.22;;;21.07;51.46
62712;BME280;48772;55.586;37.730;2022-08-19T01:31:25;99889.84;;;21.01;51.17
62712;BME280;48772;55.586;37.730;2022-08-19T01:33:53;99885.22;;;21.01;51.27
62712;BME280;48772;55.586;37.730;2022-08-19T01:36:42;99890.00;;;20.99;51.28
62712;BME280;48772;55.586;37.730;2022-08-19T01:39:17;99885.91;;;21.03;51.24
62712;BME280;48772;55.586;37.730;2022-08-19T01:41:45;99858.53;;;20.90;50.97
62712;BME280;48772;55.586;37.730;2022-08-19T01:44:11;99864.38;;;21.02;50.78
62712;BME280;48772;55.586;37.730;2022-08-19T01:46:37;99861.00;;;21.00;50.50
62712;BME280;48772;55.586;37.730;2022-08-19T01:49:04;99863.72;;;21.00;50.70
62712;BME280;48772;55.586;37.730;2022-08-19T01:51:31;99855.22;;;20.80;50.97
62712;BME280;48772;55.586;37.730;2022-08-19T01:53:57;99867.41;;;20.84;50.94
62712;BME280;48772;55.586;37.730;2022-08-19T01:56:24;99879.06;;;20.85;50.98
62712;BME280;48772;55.586;37.730;2022-08-19T01:58:57;99890.47;;;20.80;51.25
62712;BME280;48772;55.586;37.730;2022-08-19T02:01:25;99888.13;;;20.77;50.74
62712;BME280;48772;55.586;37.730;2022-08-19T02:03:51;99890.28;;;20.82;50.79
62712;BME280;48772;55.586;37.730;2022-08-19T02:06:19;99877.72;;;20.66;51.21
62712;BME280;48772;55.586;37.730;2022-08-19T02:08:45;99884.66;;;20.69;51.02
62712;BME280;48772;55.586;37.730;2022-08-19T02:11:20;99904.94;;;20.73;51.18
62712;BME280;48772;55.586;37.730;2022-08-19T02:13:47;99891.28;;;20.66;51.39
62712;BME280;48772;55.586;37.730;2022-08-19T02:16:12;99886.28;;;20.55;51.45
62712;BME280;48772;55.586;37.730;2022-08-19T02:18:38;99878.34;;;20.54;51.72
62712;BME280;48772;55.586;37.730;2022-08-19T02:21:04;99883.44;;;20.49;51.68
62712;BME280;48772;55.586;37.730;2022-08-19T02:23:31;99889.81;;;20.56;51.94
62712;BME280;48772;55.586;37.730;2022-08-19T02:25:57;99888.31;;;20.53;51.90
62712;BME280;48772;55.586;37.730;2022-08-19T02:28:22;99889.03;;;20.47;51.89
62712;BME280;48772;55.586;37.730;2022-08-19T02:30:48;99901.56;;;20.48;51.80
62712;BME280;48772;55.586;37.730;2022-08-19T02:33:14;99901.25;;;20.43;51.88
62712;BME280;48772;55.586;37.730;2022-08-19T02:35:45;99901.25;;;20.43;51.82
62712;BME280;48772;55.586;37.730;2022-08-19T02:38:11;99908.66;;;20.49;51.67
62712;BME280;48772;55.586;37.730;2022-08-19T02:41:04;99878.47;;;20.30;52.10
62712;BME280;48772;55.586;37.730;2022-08-19T02:43:33;99906.06;;;20.33;52.19
62712;BME280;48772;55.586;37.730;2022-08-19T02:46:24;99902.16;;;20.36;52.24
62712;BME280;48772;55.586;37.730;2022-08-19T02:48:55;99901.84;;;20.31;52.05
62712;BME280;48772;55.586;37.730;2022-08-19T02:51:29;99896.81;;;20.28;52.15
62712;BME280;48772;55.586;37.730;2022-08-19T02:53:58;99916.19;;;20.39;51.99
62712;BME280;48772;55.586;37.730;2022-08-19T02:56:25;99914.16;;;20.41;52.04
62712;BME280;48772;55.586;37.730;2022-08-19T02:58:53;99900.84;;;20.32;52.01
62712;BME280;48772;55.586;37.730;2022-08-19T03:01:23;99906.06;;;20.33;52.14
62712;BME280;48772;55.586;37.730;2022-08-19T03:03:50;99916.53;;;20.36;52.31
62712;BME280;48772;55.586;37.730;2022-08-19T03:06:17;99917.38;;;20.37;52.18
62712;BME280;48772;55.586;37.730;2022-08-19T03:08:44;99916.53;;;20.36;52.34
62712;BME280;48772;55.586;37.730;2022-08-19T03:11:19;99906.25;;;20.32;52.21
62712;BME280;48772;55.586;37.730;2022-08-19T03:13:46;99927.88;;;20.40;52.15
62712;BME280;48772;55.586;37.730;2022-08-19T03:16:15;99903.22;;;20.27;52.31
62712;BME280;48772;55.586;37.730;2022-08-19T03:18:44;99920.78;;;20.31;52.56
62712;BME280;48772;55.586;37.730;2022-08-19T03:21:18;99899.34;;;20.21;52.47
62712;BME280;48772;55.586;37.730;2022-08-19T03:23:44;99925.50;;;20.37;52.77
62712;BME280;48772;55.586;37.730;2022-08-19T03:26:11;99934.00;;;20.34;52.53
62712;BME280;48772;55.586;37.730;2022-08-19T03:28:36;99908.81;;;20.25;52.59
62712;BME280;48772;55.586;37.730;2022-08-19T03:31:09;99923.28;;;20.40;52.76
62712;BME280;48772;55.586;37.730;2022-08-19T03:33:36;99904.00;;;20.35;51.95
62712;BME280;48772;55.586;37.730;2022-08-19T03:36:07;99926.78;;;20.49;52.32
62712;BME280;48772;55.586;37.730;2022-08-19T03:38:41;99915.78;;;20.50;52.17
62712;BME280;48772;55.586;37.730;2022-08-19T03:41:11;99915.47;;;20.45;52.09
62712;BME280;48772;55.586;37.730;2022-08-19T03:43:38;99923.72;;;20.52;52.23
62712;BME280;48772;55.586;37.730;2022-08-19T03:46:08;99932.34;;;20.55;52.31
62712;BME280;48772;55.586;37.730;2022-08-19T03:48:34;99922.84;;;20.59;52.30
62712;BME280;48772;55.586;37.730;2022-08-19T03:51:03;99933.00;;;20.57;52.49
62712;BME280;48772;55.586;37.730;2022-08-19T03:53:30;99922.22;;;20.49;52.46
62712;BME280;48772;55.586;37.730;2022-08-19T03:55:57;99919.84;;;20.46;52.43
62712;BME280;48772;55.586;37.730;2022-08-19T03:58:25;99931.44;;;20.63;52.36
62712;BME280;48772;55.586;37.730;2022-08-19T04:00:55;99926.75;;;20.57;52.61
62712;BME280;48772;55.586;37.730;2022-08-19T04:03:23;99925.47;;;20.67;52.51
62712;BME280;48772;55.586;37.730;2022-08-19T04:05:49;99898.28;;;20.61;52.43
62712;BME280;48772;55.586;37.730;2022-08-19T04:08:16;99913.06;;;20.73;52.40
62712;BME280;48772;55.586;37.730;2022-08-19T04:10:44;99922.25;;;20.72;52.43
62712;BME280;48772;55.586;37.730;2022-08-19T04:13:10;99917.09;;;20.77;52.30
62712;BME280;48772;55.586;37.730;2022-08-19T04:15:42;99912.47;;;20.85;52.17
62712;BME280;48772;55.586;37.730;2022-08-19T04:18:09;99912.75;;;20.90;51.87
62712;BME280;48772;55.586;37.730;2022-08-19T04:20:46;99930.69;;;20.99;51.58
62712;BME280;48772;55.586;37.730;2022-08-19T04:23:13;99935.53;;;21.04;51.61
62712;BME280;48772;55.586;37.730;2022-08-19T04:25:42;99938.56;;;21.09;51.43
62712;BME280;48772;55.586;37.730;2022-08-19T04:28:11;99942.97;;;21.10;51.58
62712;BME280;48772;55.586;37.730;2022-08-19T04:30:42;99941.81;;;21.27;51.15
62712;BME280;48772;55.586;37.730;2022-08-19T04:33:09;99936.47;;;21.33;51.27
62712;BME280;48772;55.586;37.730;2022-08-19T04:35:37;99935.78;;;21.31;51.23
62712;BME280;48772;55.586;37.730;2022-08-19T04:38:04;99946.09;;;21.36;51.43
62712;BME280;48772;55.586;37.730;2022-08-19T04:40:30;99953.16;;;21.45;51.19
62712;BME280;48772;55.586;37.730;2022-08-19T04:43:14;99947.81;;;21.51;51.27
62712;BME280;48772;55.586;37.730;2022-08-19T04:45:43;99951.16;;;21.53;51.40
62712;BME280;48772;55.586;37.730;2022-08-19T04:48:09;99938.91;;;21.43;51.27
62712;BME280;48772;55.586;37.730;2022-08-19T04:50:35;99947.50;;;21.46;51.16
62712;BME280;48772;55.586;37.730;2022-08-19T04:53:04;99931.91;;;21.48;51.24
62712;BME280;48772;55.586;37.730;2022-08-19T04:55:30;99944.16;;;21.59;51.09
62712;BME280;48772;55.586;37.730;2022-08-19T04:57:56;99940.81;;;21.57;50.99
62712;BME280;48772;55.586;37.730;2022-08-19T05:00:22;99929.19;;;21.48;50.95
62712;BME280;48772;55.586;37.730;2022-08-19T05:02:48;99936.78;;;21.53;51.04
62712;BME280;48772;55.586;37.730;2022-08-19T05:05:17;99945.75;;;21.53;51.26
62712;BME280;48772;55.586;37.730;2022-08-19T05:07:43;99946.69;;;21.60;51.31
62712;BME280;48772;55.586;37.730;2022-08-19T05:10:09;99936.50;;;21.62;51.20
62712;BME280;48772;55.586;37.730;2022-08-19T05:12:36;99947.19;;;21.78;50.74
62712;BME280;48772;55.586;37.730;2022-08-19T05:15:07;99928.50;;;21.83;50.69
62712;BME280;48772;55.586;37.730;2022-08-19T05:17:36;99936.44;;;21.99;50.43
62712;BME280;48772;55.586;37.730;2022-08-19T05:20:04;99953.38;;;22.16;49.68
62712;BME280;48772;55.586;37.730;2022-08-19T05:22:48;99951.47;;;22.31;49.54
62712;BME280;48772;55.586;37.730;2022-08-19T05:25:17;99943.47;;;22.44;49.50
62712;BME280;48772;55.586;37.730;2022-08-19T05:27:44;99952.78;;;22.71;48.75
62712;BME280;48772;55.586;37.730;2022-08-19T05:30:11;99945.81;;;22.83;48.37
62712;BME280;48772;55.586;37.730;2022-08-19T05:32:38;99946.06;;;22.88;48.25
62712;BME280;48772;55.586;37.730;2022-08-19T05:35:05;99929.75;;;22.88;48.20
62712;BME280;48772;55.586;37.730;2022-08-19T05:37:31;99942.25;;;23.03;47.76
62712;BME280;48772;55.586;37.730;2022-08-19T05:39:57;99934.00;;;23.18;47.09
62712;BME280;48772;55.586;37.730;2022-08-19T05:42:22;99929.53;;;23.31;47.00
62712;BME280;48772;55.586;37.730;2022-08-19T05:44:48;99894.44;;;23.43;46.33
62712;BME280;48772;55.586;37.730;2022-08-19T05:47:15;99929.84;;;23.77;46.38
62712;BME280;48772;55.586;37.730;2022-08-19T05:49:42;99927.28;;;23.69;46.10
62712;BME280;48772;55.586;37.730;2022-08-19T05:52:10;99924.75;;;23.67;46.24
62712;BME280;48772;55.586;37.730;2022-08-19T05:54:39;99946.28;;;23.56;46.51
62712;BME280;48772;55.586;37.730;2022-08-19T05:57:09;99939.69;;;23.44;46.70
62712;BME280;48772;55.586;37.730;2022-08-19T05:59:35;99943.13;;;23.31;46.87
62712;BME280;48772;55.586;37.730;2022-08-19T06:02:02;99951.38;;;23.38;46.74
62712;BME280;48772;55.586;37.730;2022-08-19T06:04:28;99939.81;;;23.36;46.89
62712;BME280;48772;55.586;37.730;2022-08-19T06:06:54;99949.09;;;23.41;47.18
62712;BME280;48772;55.586;37.730;2022-08-19T06:09:22;99946.41;;;23.48;47.04
62712;BME280;48772;55.586;37.730;2022-08-19T06:11:51;99948.88;;;23.43;46.93
62712;BME280;48772;55.586;37.730;2022-08-19T06:14:21;99940.69;;;23.36;46.82
62712;BME280;48772;55.586;37.730;2022-08-19T06:16:48;99947.59;;;23.39;47.06
62712;BME280;48772;55.586;37.730;2022-08-19T06:19:18;99941.25;;;23.32;47.32
62712;BME280;48772;55.586;37.730;2022-08-19T06:21:46;99955.78;;;23.39;47.75
62712;BME280;48772;55.586;37.730;2022-08-19T06:24:15;99957.09;;;23.49;48.08
62712;BME280;48772;55.586;37.730;2022-08-19T06:26:44;99951.84;;;23.48;47.67
62712;BME280;48772;55.586;37.730;2022-08-19T06:29:13;99944.94;;;23.45;47.08
62712;BME280;48772;55.586;37.730;2022-08-19T06:31:47;99947.47;;;23.47;47.19
62712;BME280;48772;55.586;37.730;2022-08-19T06:34:15;99967.25;;;23.62;46.73
62712;BME280;48772;55.586;37.730;2022-08-19T06:36:44;99959.47;;;23.59;46.74
62712;BME280;48772;55.586;37.730;2022-08-19T06:39:14;99959.59;;;23.78;46.29
62712;BME280;48772;55.586;37.730;2022-08-19T06:41:44;99960.06;;;23.82;46.19
62712;BME280;48772;55.586;37.730;2022-08-19T06:44:18;99961.97;;;23.88;46.09
62712;BME280;48772;55.586;37.730;2022-08-19T06:46:44;99963.94;;;23.94;45.60
62712;BME280;48772;55.586;37.730;2022-08-19T06:49:10;99951.59;;;23.98;45.69
62712;BME280;48772;55.586;37.730;2022-08-19T06:51:41;99944.53;;;24.10;45.12
62712;BME280;48772;55.586;37.730;2022-08-19T06:54:07;99964.56;;;24.30;44.92
62712;BME280;48772;55.586;37.730;2022-08-19T06:56:33;99960.19;;;24.42;44.50
62712;BME280;48772;55.586;37.730;2022-08-19T06:59:11;99950.75;;;24.38;44.60
62712;BME280;48772;55.586;37.730;2022-08-19T07:01:49;99963.22;;;24.66;43.98
62712;BME280;48772;55.586;37.730;2022-08-19T07:04:18;99972.06;;;24.75;43.97
62712;BME280;48772;55.586;37.730;2022-08-19T07:06:44;99965.41;;;24.84;43.97
62712;BME280;48772;55.586;37.730;2022-08-19T07:09:15;99963.53;;;24.91;43.16
62712;BME280;48772;55.586;37.730;2022-08-19T07:11:47;99961.41;;;24.99;43.11
62712;BME280;48772;55.586;37.730;2022-08-19T07:14:14;99953.88;;;25.08;43.14
62712;BME280;48772;55.586;37.730;2022-08-19T07:16:43;99947.78;;;25.25;43.31
62712;BME280;48772;55.586;37.730;2022-08-19T07:19:12;99956.44;;;25.42;42.23
62712;BME280;48772;55.586;37.730;2022-08-19T07:21:38;99942.59;;;25.50;42.13
62712;BME280;48772;55.586;37.730;2022-08-19T07:24:04;99959.16;;;25.75;41.59
62712;BME280;48772;55.586;37.730;2022-08-19T07:26:32;99950.75;;;25.76;40.79
62712;BME280;48772;55.586;37.730;2022-08-19T07:28:59;99946.53;;;25.80;40.65
62712;BME280;48772;55.586;37.730;2022-08-19T07:31:27;99961.41;;;25.91;40.51
62712;BME280;48772;55.586;37.730;2022-08-19T07:33:55;99960.59;;;25.84;40.14
62712;BME280;48772;55.586;37.730;2022-08-19T07:36:24;99952.41;;;25.90;40.38
62712;BME280;48772;55.586;37.730;2022-08-19T07:38:51;99952.63;;;25.95;39.94
62712;BME280;48772;55.586;37.730;2022-08-19T07:41:21;99959.28;;;26.19;39.92
62712;BME280;48772;55.586;37.730;2022-08-19T07:43:48;99953.63;;;26.07;40.02
62712;BME280;48772;55.586;37.730;2022-08-19T07:46:14;99957.63;;;26.05;39.45
62712;BME280;48772;55.586;37.730;2022-08-19T07:48:42;99959.25;;;26.25;39.13
62712;BME280;48772;55.586;37.730;2022-08-19T07:51:10;99951.69;;;26.21;39.05
62712;BME280;48772;55.586;37.730;2022-08-19T07:53:37;99954.66;;;26.19;39.05
62712;BME280;48772;55.586;37.730;2022-08-19T07:56:04;99955.13;;;26.03;39.07
62712;BME280;48772;55.586;37.730;2022-08-19T07:58:36;99935.38;;;26.01;39.20
62712;BME280;48772;55.586;37.730;2022-08-19T08:01:03;99961.38;;;26.23;39.57
62712;BME280;48772;55.586;37.730;2022-08-19T08:03:30;99925.47;;;26.00;39.20
62712;BME280;48772;55.586;37.730;2022-08-19T08:06:15;99950.91;;;25.94;39.80
62712;BME280;48772;55.586;37.730;2022-08-19T08:09:01;99967.72;;;26.04;39.93
62712;BME280;48772;55.586;37.730;2022-08-19T08:11:40;99950.03;;;26.13;39.65
62712;BME280;48772;55.586;37.730;2022-08-19T08:14:08;99946.28;;;26.08;39.50
62712;BME280;48772;55.586;37.730;2022-08-19T08:16:36;99947.53;;;25.99;39.65
62712;BME280;48772;55.586;37.730;2022-08-19T08:19:06;99965.34;;;26.27;39.12
62712;BME280;48772;55.586;37.730;2022-08-19T08:21:33;99951.25;;;26.30;39.06
62712;BME280;48772;55.586;37.730;2022-08-19T08:23:59;99960.25;;;26.37;38.12
62712;BME280;48772;55.586;37.730;2022-08-19T08:26:26;99949.78;;;26.21;37.86
62712;BME280;48772;55.586;37.730;2022-08-19T08:28:52;99968.91;;;26.28;37.78
62712;BME280;48772;55.586;37.730;2022-08-19T08:31:18;99957.50;;;26.44;37.19
62712;BME280;48772;55.586;37.730;2022-08-19T08:33:45;99977.22;;;26.59;37.05
62712;BME280;48772;55.586;37.730;2022-08-19T08:36:12;99968.47;;;26.81;36.51
62712;BME280;48772;55.586;37.730;2022-08-19T08:38:42;99969.38;;;27.06;36.39
62712;BME280;48772;55.586;37.730;2022-08-19T08:41:34;99975.97;;;27.30;35.81
62712;BME280;48772;55.586;37.730;2022-08-19T08:44:03;99959.16;;;27.51;35.48
62712;BME280;48772;55.586;37.730;2022-08-19T08:46:46;99955.00;;;27.66;35.10
62712;BME280;48772;55.586;37.730;2022-08-19T08:52:24;99977.09;;;27.71;33.95
62712;BME280;48772;55.586;37.730;2022-08-19T08:54:54;99969.81;;;27.59;33.79
62712;BME280;48772;55.586;37.730;2022-08-19T08:57:49;99939.56;;;27.72;33.42
62712;BME280;48772;55.586;37.730;2022-08-19T09:00:22;99974.28;;;28.02;33.32
62712;BME280;48772;55.586;37.730;2022-08-19T09:02:48;99970.78;;;27.95;33.68
62712;BME280;48772;55.586;37.730;2022-08-19T09:05:14;99964.16;;;27.78;33.59
62712;BME280;48772;55.586;37.730;2022-08-19T09:13:15;99968.72;;;27.91;33.55
62712;BME280;48772;55.586;37.730;2022-08-19T09:15:50;99971.91;;;28.24;33.15
62712;BME280;48772;55.586;37.730;2022-08-19T09:18:18;99964.25;;;28.51;33.02
62712;BME280;48772;55.586;37.730;2022-08-19T09:20:44;99955.78;;;28.82;33.13
62712;BME280;48772;55.586;37.730;2022-08-19T09:23:11;99957.25;;;28.66;33.39
62712;BME280;48772;55.586;37.730;2022-08-19T09:25:37;99965.44;;;28.73;32.26
62712;BME280;48772;55.586;37.730;2022-08-19T09:28:05;99959.75;;;29.27;31.38
62712;BME280;48772;55.586;37.730;2022-08-19T09:30:36;99965.59;;;29.19;30.30
62712;BME280;48772;55.586;37.730;2022-08-19T09:33:05;99957.38;;;29.01;30.16
62712;BME280;48772;55.586;37.730;2022-08-19T09:35:32;99973.06;;;29.00;29.58
62712;BME280;48772;55.586;37.730;2022-08-19T09:37:59;99969.78;;;28.92;28.17
62712;BME280;48772;55.586;37.730;2022-08-19T09:40:27;99959.59;;;28.81;28.63
62712;BME280;48772;55.586;37.730;2022-08-19T09:42:54;99979.75;;;28.75;29.41
62712;BME280;48772;55.586;37.730;2022-08-19T09:45:21;99979.44;;;29.12;29.67
62712;BME280;48772;55.586;37.730;2022-08-19T09:47:49;99980.38;;;29.47;27.56
62712;BME280;48772;55.586;37.730;2022-08-19T09:50:16;99974.53;;;29.55;26.96
62712;BME280;48772;55.586;37.730;2022-08-19T09:52:45;99987.91;;;29.11;27.47
62712;BME280;48772;55.586;37.730;2022-08-19T09:55:12;99963.31;;;28.86;27.02
62712;BME280;48772;55.586;37.730;2022-08-19T09:57:38;99996.03;;;29.06;27.17
62712;BME280;48772;55.586;37.730;2022-08-19T10:00:06;99972.53;;;28.92;26.82
62712;BME280;48772;55.586;37.730;2022-08-19T10:02:33;99992.38;;;29.23;24.96
62712;BME280;48772;55.586;37.730;2022-08-19T10:05:00;99972.63;;;29.15;24.87
62712;BME280;48772;55.586;37.730;2022-08-19T10:07:44;99971.66;;;29.09;24.44
62712;BME280;48772;55.586;37.730;2022-08-19T10:10:10;99997.03;;;29.23;23.96
62712;BME280;48772;55.586;37.730;2022-08-19T10:12:36;99977.78;;;29.11;23.62
62712;BME280;48772;55.586;37.730;2022-08-19T10:15:03;99994.19;;;29.41;22.52
62712;BME280;48772;55.586;37.730;2022-08-19T10:17:29;99985.50;;;29.44;22.88
62712;BME280;48772;55.586;37.730;2022-08-19T10:19:55;100005.28;;;29.64;23.11
62712;BME280;48772;55.586;37.730;2022-08-19T10:22:21;99988.94;;;29.28;21.95
62712;BME280;48772;55.586;37.730;2022-08-19T10:24:47;99968.69;;;29.11;23.02
62712;BME280;48772;55.586;37.730;2022-08-19T10:27:13;99998.66;;;29.42;23.37
62712;BME280;48772;55.586;37.730;2022-08-19T10:29:40;99990.13;;;29.32;23.25
62712;BME280;48772;55.586;37.730;2022-08-19T10:32:08;100002.06;;;29.26;24.06
62712;BME280;48772;55.586;37.730;2022-08-19T10:34:35;100006.41;;;29.45;24.10
62712;BME280;48772;55.586;37.730;2022-08-19T10:37:02;99998.34;;;29.73;23.18
62712;BME280;48772;55.586;37.730;2022-08-19T10:39:35;99992.38;;;29.99;22.41
62712;BME280;48772;55.586;37.730;2022-08-19T10:42:08;99991.75;;;30.43;22.02
62712;BME280;48772;55.586;37.730;2022-08-19T10:44:35;100002.53;;;30.84;22.00
62712;BME280;48772;55.586;37.730;2022-08-19T10:47:02;100001.16;;;30.98;22.01
62712;BME280;48772;55.586;37.730;2022-08-19T10:49:29;100000.06;;;30.82;22.32
62712;BME280;48772;55.586;37.730;2022-08-19T10:51:55;99995.47;;;30.14;22.21
62712;BME280;48772;55.586;37.730;2022-08-19T10:54:40;100006.03;;;29.41;23.95
62712;BME280;48772;55.586;37.730;2022-08-19T10:57:24;99983.63;;;29.15;24.87
62712;BME280;48772;55.586;37.730;2022-08-19T10:59:55;99995.06;;;29.12;24.97
62712;BME280;48772;55.586;37.730;2022-08-19T11:02:21;100003.13;;;29.25;24.63
62712;BME280;48772;55.586;37.730;2022-08-19T11:04:47;100000.06;;;29.44;24.68
62712;BME280;48772;55.586;37.730;2022-08-19T11:07:15;99972.00;;;29.54;24.61
62712;BME280;48772;55.586;37.730;2022-08-19T11:09:42;99999.06;;;30.03;24.72
62712;BME280;48772;55.586;37.730;2022-08-19T11:12:09;99991.91;;;29.79;24.64
62712;BME280;48772;55.586;37.730;2022-08-19T11:14:35;100003.81;;;29.61;25.03
62712;BME280;48772;55.586;37.730;2022-08-19T11:17:03;99994.47;;;29.51;25.08
62712;BME280;48772;55.586;37.730;2022-08-19T11:19:30;99995.56;;;29.61;25.00
62712;BME280;48772;55.586;37.730;2022-08-19T11:21:56;99983.00;;;29.54;24.85
62712;BME280;48772;55.586;37.730;2022-08-19T11:24:25;99989.84;;;29.63;25.05
62712;BME280;48772;55.586;37.730;2022-08-19T11:26:53;99989.16;;;29.38;24.96
62712;BME280;48772;55.586;37.730;2022-08-19T11:29:22;99978.53;;;29.18;25.32
62712;BME280;48772;55.586;37.730;2022-08-19T11:31:51;99969.19;;;29.19;25.23
62712;BME280;48772;55.586;37.730;2022-08-19T11:34:21;99978.09;;;29.56;25.23
62712;BME280;48772;55.586;37.730;2022-08-19T11:36:49;99994.03;;;29.13;25.86
62712;BME280;48772;55.586;37.730;2022-08-19T11:39:19;99971.63;;;28.98;26.25
62712;BME280;48772;55.586;37.730;2022-08-19T11:41:45;99980.94;;;28.79;26.66
62712;BME280;48772;55.586;37.730;2022-08-19T11:44:11;99973.59;;;28.61;26.60
62712;BME280;48772;55.586;37.730;2022-08-19T11:46:40;99987.34;;;28.43;26.71
62712;BME280;48772;55.586;37.730;2022-08-19T11:49:09;99999.22;;;28.19;27.31
62712;BME280;48772;55.586;37.730;2022-08-19T11:51:35;99987.72;;;28.47;27.50
62712;BME280;48772;55.586;37.730;2022-08-19T11:54:04;99986.63;;;28.66;27.35
62712;BME280;48772;55.586;37.730;2022-08-19T11:56:31;99972.78;;;28.90;26.69
62712;BME280;48772;55.586;37.730;2022-08-19T11:58:57;99968.59;;;28.99;27.18
62712;BME280;48772;55.586;37.730;2022-08-19T12:01:25;99971.44;;;29.11;27.07
62712;BME280;48772;55.586;37.730;2022-08-19T12:03:52;99977.91;;;29.16;26.91
62712;BME280;48772;55.586;37.730;2022-08-19T12:06:22;99955.44;;;29.19;26.89
62712;BME280;48772;55.586;37.730;2022-08-19T12:08:51;99963.47;;;29.21;26.94
62712;BME280;48772;55.586;37.730;2022-08-19T12:11:17;99963.38;;;29.39;26.86
62712;BME280;48772;55.586;37.730;2022-08-19T12:13:43;99961.72;;;29.49;26.77
62712;BME280;48772;55.586;37.730;2022-08-19T12:16:19;99973.00;;;29.59;27.00
62712;BME280;48772;55.586;37.730;2022-08-19T12:18:45;99970.13;;;29.66;26.45
62712;BME280;48772;55.586;37.730;2022-08-19T12:21:16;99967.72;;;29.81;26.56
62712;BME280;48772;55.586;37.730;2022-08-19T12:23:43;99975.28;;;29.97;26.37
62712;BME280;48772;55.586;37.730;2022-08-19T12:26:11;99944.78;;;29.87;26.88
62712;BME280;48772;55.586;37.730;2022-08-19T12:28:37;99976.47;;;29.78;27.05
62712;BME280;48772;55.586;37.730;2022-08-19T12:31:03;99973.34;;;29.63;27.39
62712;BME280;48772;55.586;37.730;2022-08-19T12:33:29;99975.03;;;29.23;27.59
62712;BME280;48772;55.586;37.730;2022-08-19T12:36:02;99974.72;;;29.31;28.24
62712;BME280;48772;55.586;37.730;2022-08-19T12:38:29;99971.09;;;29.19;28.22
62712;BME280;48772;55.586;37.730;2022-08-19T12:40:55;99962.41;;;29.33;27.92
62712;BME280;48772;55.586;37.730;2022-08-19T12:43:21;99962.31;;;29.51;27.63
62712;BME280;48772;55.586;37.730;2022-08-19T12:45:47;99958.66;;;29.16;28.04
62712;BME280;48772;55.586;37.730;2022-08-19T12:48:13;99979.59;;;29.29;27.87
62712;BME280;48772;55.586;37.730;2022-08-19T12:50:41;99929.91;;;28.89;27.95
62712;BME280;48772;55.586;37.730;2022-08-19T12:53:07;99962.59;;;29.09;28.11
62712;BME280;48772;55.586;37.730;2022-08-19T12:55:33;99983.16;;;29.18;28.05
62712;BME280;48772;55.586;37.730;2022-08-19T12:57:59;99970.97;;;29.14;27.84
62712;BME280;48772;55.586;37.730;2022-08-19T13:00:28;99972.16;;;28.59;28.93
62712;BME280;48772;55.586;37.730;2022-08-19T13:02:53;99973.03;;;28.16;29.49
62712;BME280;48772;55.586;37.730;2022-08-19T13:05:22;99992.56;;;28.08;29.86
62712;BME280;48772;55.586;37.730;2022-08-19T13:07:50;99984.72;;;27.69;30.41